createdAt,value
2023-05-21T00:02:26.462Z,1.00
2023-05-21T00:04:54.852Z,1.00
2023-05-21T00:07:24.132Z,1.00
2023-05-21T00:09:53.704Z,1.00
2023-05-21T00:12:22.053Z,1.00
2023-05-21T00:14:50.392Z,1.00
2023-05-21T00:17:18.845Z,1.00
2023-05-21T00:19:47.222Z,1.00
2023-05-21T00:22:15.558Z,1.00
2023-05-21T00:24:46.208Z,1.00
2023-05-21T00:27:15.085Z,1.00
2023-05-21T00:29:44.789Z,1.00
2023-05-21T00:32:13.242Z,1.00
2023-05-21T00:34:42.315Z,1.00
2023-05-21T00:37:10.767Z,1.00
2023-05-21T00:39:39.135Z,1.00
2023-05-21T00:42:07.830Z,1.00
2023-05-21T00:44:36.252Z,1.00
2023-05-21T00:47:07.251Z,1.00
2023-05-21T00:49:35.766Z,1.00
2023-05-21T00:52:04.167Z,1.00
2023-05-21T00:54:32.830Z,1.00
2023-05-21T00:57:02.624Z,1.00
2023-05-21T00:59:32.303Z,1.00
2023-05-21T01:02:04.864Z,1.00
2023-05-21T01:04:33.313Z,1.00
2023-05-21T01:07:02.688Z,1.00
2023-05-21T01:09:31.092Z,1.00
2023-05-21T01:12:01.747Z,1.00
2023-05-21T01:14:30.695Z,1.00
2023-05-21T01:17:02.925Z,1.00
2023-05-21T01:19:33.275Z,1.00
2023-05-21T01:22:08.987Z,1.00
2023-05-21T01:24:37.364Z,1.00
2023-05-21T01:27:08.391Z,1.00
2023-05-21T01:29:37.054Z,1.00
2023-05-21T01:32:18.729Z,1.00
2023-05-21T01:35:02.136Z,1.00
2023-05-21T01:37:46.810Z,1.00
2023-05-21T01:40:32.829Z,1.00
2023-05-21T01:43:02.077Z,1.00
2023-05-21T01:45:33.405Z,1.00
2023-05-21T01:48:02.129Z,1.00
2023-05-21T01:50:32.674Z,1.00
2023-05-21T01:53:04.698Z,1.00
2023-05-21T01:55:33.734Z,1.00
2023-05-21T01:58:02.736Z,1.00
2023-05-21T02:00:33.130Z,1.00
2023-05-21T02:03:01.702Z,1.00
2023-05-21T02:05:30.154Z,1.00
2023-05-21T02:08:00.793Z,1.00
2023-05-21T02:10:29.160Z,1.00
2023-05-21T02:12:57.516Z,1.00
2023-05-21T02:15:26.556Z,1.00
2023-05-21T02:17:55.138Z,1.00
2023-05-21T02:20:24.021Z,1.00
2023-05-21T02:22:52.453Z,1.00
2023-05-21T02:25:21.060Z,1.00
2023-05-21T02:27:53.712Z,1.00
2023-05-21T02:30:22.424Z,1.00
2023-05-21T02:32:51.606Z,1.00
2023-05-21T02:35:20.035Z,1.00
2023-05-21T02:37:48.530Z,1.00
2023-05-21T02:40:16.988Z,1.00
2023-05-21T02:42:45.372Z,1.00
2023-05-21T02:45:14.339Z,1.00
2023-05-21T02:47:42.817Z,1.00
2023-05-21T02:50:11.766Z,1.00
2023-05-21T02:52:40.084Z,1.00
2023-05-21T02:55:09.131Z,1.00
2023-05-21T02:57:37.466Z,1.00
2023-05-21T03:00:10.615Z,1.00
2023-05-21T03:02:39.019Z,1.00
2023-05-21T03:05:08.197Z,1.00
2023-05-21T03:07:36.632Z,1.00
2023-05-21T03:10:05.984Z,1.00
2023-05-21T03:12:34.308Z,1.00
2023-05-21T03:15:02.656Z,1.00
2023-05-21T03:17:31.203Z,1.00
2023-05-21T03:19:59.572Z,1.00
2023-05-21T03:22:27.925Z,1.00
2023-05-21T03:24:56.699Z,1.00
2023-05-21T03:27:25.127Z,1.00
2023-05-21T03:29:55.886Z,1.00
2023-05-21T03:32:24.408Z,1.00
2023-05-21T03:34:52.829Z,1.00
2023-05-21T03:37:21.184Z,1.00
2023-05-21T03:39:49.523Z,1.00
2023-05-21T03:42:17.959Z,1.00
2023-05-21T03:44:46.741Z,1.00
2023-05-21T03:47:15.370Z,1.00
2023-05-21T03:49:43.816Z,1.00
2023-05-21T03:52:12.132Z,1.00
2023-05-21T03:54:40.457Z,1.00
2023-05-21T03:57:08.850Z,1.00
2023-05-21T03:59:37.253Z,1.00
2023-05-21T04:02:06.506Z,1.00
2023-05-21T04:04:35.056Z,1.00
2023-05-21T04:07:05.337Z,1.00
2023-05-21T04:09:34.750Z,1.00
2023-05-21T04:12:05.511Z,1.00
2023-05-21T04:14:34.072Z,1.00
2023-05-21T04:17:06.024Z,1.00
2023-05-21T04:19:35.602Z,1.00
2023-05-21T04:22:04.029Z,1.00
2023-05-21T04:24:32.564Z,1.00
2023-05-21T04:27:02.170Z,1.00
2023-05-21T04:29:30.787Z,1.00
2023-05-21T04:31:59.227Z,1.00
2023-05-21T04:34:27.612Z,1.00
2023-05-21T04:36:55.980Z,1.00
2023-05-21T04:39:24.386Z,1.00
2023-05-21T04:41:55.632Z,1.00
2023-05-21T04:44:24.187Z,1.00
2023-05-21T04:46:53.370Z,1.00
2023-05-21T04:49:24.773Z,1.00
2023-05-21T04:51:53.198Z,1.00
2023-05-21T04:54:21.543Z,1.00
2023-05-21T04:56:50.118Z,1.00
2023-05-21T04:59:19.390Z,1.00
2023-05-21T05:01:47.841Z,1.00
2023-05-21T05:04:16.287Z,1.00
2023-05-21T05:06:44.667Z,1.00
2023-05-21T05:09:13.047Z,1.00
2023-05-21T05:11:41.439Z,1.00
2023-05-21T05:14:09.848Z,1.00
2023-05-21T05:16:38.319Z,1.00
2023-05-21T05:19:06.800Z,1.00
2023-05-21T05:21:35.461Z,1.00
2023-05-21T05:24:03.843Z,1.00
2023-05-21T05:26:32.208Z,1.00
2023-05-21T05:29:00.534Z,1.00
2023-05-21T05:31:28.932Z,1.00
2023-05-21T05:33:57.404Z,1.00
2023-05-21T05:36:25.753Z,1.00
2023-05-21T05:38:54.145Z,1.00
2023-05-21T05:41:22.569Z,1.00
2023-05-21T05:43:51.078Z,1.00
2023-05-21T05:46:19.474Z,1.00
2023-05-21T05:48:48.298Z,1.00
2023-05-21T05:51:17.907Z,1.00
2023-05-21T05:53:46.212Z,1.00
2023-05-21T05:56:15.069Z,1.00
2023-05-21T05:58:43.473Z,1.00
2023-05-21T06:01:12.555Z,1.00
2023-05-21T06:03:41.079Z,1.00
2023-05-21T06:06:09.618Z,1.00
2023-05-21T06:08:38.744Z,1.00
2023-05-21T06:11:07.097Z,1.00
2023-05-21T06:13:35.436Z,1.00
2023-05-21T06:16:04.495Z,1.00
2023-05-21T06:18:32.868Z,1.00
2023-05-21T06:21:01.321Z,1.00
2023-05-21T06:23:29.741Z,1.00
2023-05-21T06:25:58.167Z,1.00
2023-05-21T06:28:26.634Z,1.00
2023-05-21T06:30:55.046Z,1.00
2023-05-21T06:33:24.179Z,1.00
2023-05-21T06:35:52.667Z,1.00
2023-05-21T06:38:21.044Z,1.00
2023-05-21T06:40:50.300Z,1.00
2023-05-21T06:43:18.682Z,1.00
2023-05-21T06:45:47.239Z,1.00
2023-05-21T06:48:17.720Z,1.00
2023-05-21T06:50:46.064Z,1.00
2023-05-21T06:53:17.096Z,1.00
2023-05-21T06:55:45.779Z,1.00
2023-05-21T06:58:14.125Z,1.00
2023-05-21T07:00:42.464Z,1.00
2023-05-21T07:03:10.901Z,1.00
2023-05-21T07:05:39.773Z,1.00
2023-05-21T07:08:08.609Z,1.00
2023-05-21T07:10:37.938Z,1.00
2023-05-21T07:13:06.423Z,1.00
2023-05-21T07:15:35.178Z,1.00
2023-05-21T07:18:04.313Z,1.00
2023-05-21T07:20:32.701Z,1.00
2023-05-21T07:23:01.161Z,1.00
2023-05-21T07:25:29.519Z,1.00
2023-05-21T07:27:57.864Z,1.00
2023-05-21T07:30:26.207Z,1.00
2023-05-21T07:32:54.720Z,1.00
2023-05-21T07:35:23.343Z,1.00
2023-05-21T07:37:52.187Z,1.00
2023-05-21T07:40:20.585Z,1.00
2023-05-21T07:42:48.978Z,1.00
2023-05-21T07:45:17.324Z,1.00
2023-05-21T07:47:47.624Z,1.00
2023-05-21T07:50:16.193Z,1.00
2023-05-21T07:52:44.620Z,1.00
2023-05-21T07:55:13.020Z,1.00
2023-05-21T07:57:41.390Z,1.00
2023-05-21T08:00:11.040Z,1.00
2023-05-21T08:02:39.488Z,1.00
2023-05-21T08:05:08.462Z,1.00
2023-05-21T08:07:37.215Z,1.00
2023-05-21T08:10:05.937Z,1.00
2023-05-21T08:12:35.259Z,1.00
2023-05-21T08:15:03.657Z,1.00
2023-05-21T08:17:32.082Z,1.00
2023-05-21T08:20:00.457Z,1.00
2023-05-21T08:22:28.801Z,1.00
2023-05-21T08:24:57.476Z,1.00
2023-05-21T08:27:25.851Z,1.00
2023-05-21T08:29:54.250Z,1.00
2023-05-21T08:32:22.628Z,1.00
2023-05-21T08:34:51.091Z,1.00
2023-05-21T08:37:19.471Z,1.00
2023-05-21T08:39:47.837Z,1.00
2023-05-21T08:42:37.402Z,1.00
2023-05-21T08:45:10.299Z,1.00
2023-05-21T08:47:38.779Z,1.00
2023-05-21T08:50:10.575Z,1.00
2023-05-21T08:52:39.058Z,1.00
2023-05-21T08:55:08.294Z,1.00
2023-05-21T08:57:37.269Z,1.00
2023-05-21T09:00:09.018Z,1.00
2023-05-21T09:02:41.358Z,1.00
2023-05-21T09:05:11.242Z,1.00
2023-05-21T09:07:55.288Z,1.00
2023-05-21T09:10:28.761Z,1.00
2023-05-21T09:12:57.220Z,1.00
2023-05-21T09:15:25.816Z,1.00
2023-05-21T09:17:54.788Z,1.00
2023-05-21T09:20:27.872Z,1.00
2023-05-21T09:22:56.503Z,1.00
2023-05-21T09:25:28.920Z,1.00
2023-05-21T09:28:03.212Z,1.00
2023-05-21T09:30:34.915Z,1.00
2023-05-21T09:33:04.759Z,1.00
2023-05-21T09:35:36.048Z,1.00
2023-05-21T09:38:10.365Z,1.00
2023-05-21T09:40:45.265Z,1.00
2023-05-21T09:43:17.163Z,1.00
2023-05-21T09:45:56.347Z,1.00
2023-05-21T09:48:42.761Z,1.00
2023-05-21T09:51:16.736Z,1.00
2023-05-21T09:53:58.644Z,1.00
2023-05-21T09:56:32.929Z,1.00
2023-05-21T09:59:04.975Z,1.00
2023-05-21T10:01:34.643Z,1.00
2023-05-21T10:04:07.777Z,1.00
2023-05-21T10:06:41.848Z,1.00
2023-05-21T10:09:12.360Z,1.00
2023-05-21T10:11:44.895Z,1.00
2023-05-21T10:14:23.239Z,1.00
2023-05-21T10:16:53.680Z,1.00
2023-05-21T10:19:25.057Z,1.00
2023-05-21T10:21:54.738Z,1.00
2023-05-21T10:24:25.041Z,1.00
2023-05-21T10:26:54.138Z,1.00
2023-05-21T10:29:24.065Z,1.00
2023-05-21T10:31:53.746Z,1.00
2023-05-21T10:34:25.741Z,1.00
2023-05-21T10:36:56.467Z,1.00
2023-05-21T10:39:26.448Z,1.00
2023-05-21T10:42:03.492Z,1.00
2023-05-21T10:44:47.485Z,1.00
2023-05-21T10:47:46.669Z,1.00
2023-05-21T10:50:36.698Z,1.00
2023-05-21T10:53:58.109Z,1.00
2023-05-21T10:56:41.723Z,1.00
2023-05-21T10:59:38.828Z,1.00
2023-05-21T11:02:07.981Z,1.00
2023-05-21T11:04:40.570Z,1.00
2023-05-21T11:07:09.323Z,1.00
2023-05-21T11:09:38.885Z,1.00
2023-05-21T11:12:10.593Z,2.40
2023-05-21T11:14:40.832Z,1.50
2023-05-21T11:17:14.427Z,1.00
2023-05-21T11:19:45.900Z,1.00
2023-05-21T11:22:23.493Z,1.00
2023-05-21T11:24:52.403Z,1.00
2023-05-21T11:27:34.705Z,1.00
2023-05-21T11:30:17.625Z,1.00
2023-05-21T11:33:14.470Z,1.00
2023-05-21T11:35:55.178Z,1.00
2023-05-21T11:38:23.575Z,1.00
2023-05-21T11:40:55.934Z,1.00
2023-05-21T11:43:24.272Z,1.00
2023-05-21T11:45:54.152Z,1.00
2023-05-21T11:48:30.609Z,1.00
2023-05-21T11:51:01.889Z,1.00
2023-05-21T11:53:31.503Z,1.00
2023-05-21T11:56:03.025Z,1.00
2023-05-21T11:58:33.398Z,1.00
2023-05-21T12:01:01.821Z,1.00
2023-05-21T12:03:31.132Z,1.00
2023-05-21T12:06:07.427Z,1.00
2023-05-21T12:08:36.620Z,1.00
2023-05-21T12:11:05.550Z,1.00
2023-05-21T12:13:34.224Z,1.00
2023-05-21T12:16:06.497Z,1.00
2023-05-21T12:18:35.295Z,1.00
2023-05-21T12:21:03.685Z,1.00
2023-05-21T12:23:32.352Z,1.00
2023-05-21T12:26:00.851Z,1.00
2023-05-21T12:28:29.788Z,1.00
2023-05-21T12:30:58.108Z,1.00
2023-05-21T12:33:26.881Z,1.00
2023-05-21T12:35:55.299Z,1.00
2023-05-21T12:38:23.790Z,1.00
2023-05-21T12:40:52.192Z,1.00
2023-05-21T12:43:21.235Z,1.00
2023-05-21T12:45:49.614Z,1.00
2023-05-21T12:48:18.055Z,1.00
2023-05-21T12:50:46.568Z,1.00
2023-05-21T12:53:14.979Z,1.00
2023-05-21T12:55:43.306Z,1.00
2023-05-21T12:58:15.038Z,2.20
2023-05-21T13:00:44.752Z,7.60
2023-05-21T13:03:13.235Z,13.20
2023-05-21T13:05:42.877Z,17.40
2023-05-21T13:08:12.069Z,23.30
2023-05-21T13:10:40.416Z,27.00
2023-05-21T13:13:08.772Z,29.10
2023-05-21T13:15:37.157Z,43.20
2023-05-21T13:18:05.697Z,49.80
2023-05-21T13:20:34.163Z,56.00
2023-05-21T13:23:04.037Z,58.00
2023-05-21T13:25:34.272Z,61.40
2023-05-21T13:28:06.770Z,65.40
2023-05-21T13:30:35.391Z,62.10
2023-05-21T13:33:04.528Z,60.10
2023-05-21T13:35:33.118Z,64.20
2023-05-21T13:38:01.526Z,69.30
2023-05-21T13:40:29.930Z,71.10
2023-05-21T13:42:58.402Z,62.40
2023-05-21T13:45:29.796Z,55.40
2023-05-21T13:47:58.360Z,52.50
2023-05-21T13:50:27.030Z,36.30
2023-05-21T13:52:55.414Z,32.70
2023-05-21T13:55:24.166Z,29.70
2023-05-21T13:57:52.664Z,19.70
2023-05-21T14:00:21.229Z,1.00
2023-05-21T14:02:50.964Z,1.00
2023-05-21T14:05:19.630Z,1.00
2023-05-21T14:07:49.083Z,1.00
2023-05-21T14:10:17.901Z,1.00
2023-05-21T14:12:47.374Z,1.00
2023-05-21T14:15:15.969Z,1.00
2023-05-21T14:17:44.444Z,1.00
2023-05-21T14:20:13.225Z,1.00
2023-05-21T14:22:41.580Z,1.00
2023-05-21T14:25:10.404Z,1.00
2023-05-21T14:27:39.085Z,1.00
2023-05-21T14:30:08.156Z,1.00
2023-05-21T14:32:36.632Z,1.00
2023-05-21T14:35:05.752Z,1.00
2023-05-21T14:37:34.110Z,1.00
2023-05-21T14:40:02.492Z,1.00
2023-05-21T14:42:30.918Z,1.00
2023-05-21T14:45:16.886Z,1.00
2023-05-21T14:47:48.446Z,1.00
2023-05-21T14:50:18.048Z,1.00
2023-05-21T14:52:46.523Z,1.00
2023-05-21T14:55:17.291Z,1.00
2023-05-21T14:57:48.780Z,1.00
2023-05-21T15:00:17.282Z,1.00
2023-05-21T15:02:45.794Z,1.00
2023-05-21T15:05:14.195Z,1.00
2023-05-21T15:07:42.604Z,1.00
2023-05-21T15:10:11.517Z,1.00
2023-05-21T15:12:40.983Z,1.00
2023-05-21T15:15:10.124Z,1.00
2023-05-21T15:17:38.607Z,1.00
2023-05-21T15:20:07.757Z,1.00
2023-05-21T15:22:36.310Z,1.00
2023-05-21T15:25:05.549Z,1.00
2023-05-21T15:27:34.420Z,1.00
2023-05-21T15:30:03.230Z,1.00
2023-05-21T15:32:32.401Z,1.00
2023-05-21T15:35:00.932Z,1.00
2023-05-21T15:37:32.813Z,1.00
2023-05-21T15:40:01.572Z,1.00
2023-05-21T15:42:32.196Z,1.00
2023-05-21T15:45:00.877Z,1.00
2023-05-21T15:47:29.297Z,1.00
2023-05-21T15:49:59.391Z,1.00
2023-05-21T15:52:27.989Z,1.00
2023-05-21T15:54:56.471Z,1.00
2023-05-21T15:57:24.839Z,1.00
2023-05-21T15:59:53.339Z,1.00
2023-05-21T16:02:21.754Z,1.00
2023-05-21T16:04:52.298Z,1.00
2023-05-21T16:07:20.875Z,1.00
2023-05-21T16:09:49.258Z,1.00
2023-05-21T16:12:17.646Z,1.00
2023-05-21T16:14:52.881Z,1.00
2023-05-21T16:17:21.320Z,1.00
2023-05-21T16:19:49.684Z,1.00
2023-05-21T16:22:18.048Z,1.00
2023-05-21T16:24:46.519Z,1.00
2023-05-21T16:27:14.963Z,1.00
2023-05-21T16:29:43.516Z,1.00
2023-05-21T16:32:13.957Z,1.00
2023-05-21T16:34:42.678Z,1.00
2023-05-21T16:37:11.365Z,1.00
2023-05-21T16:39:39.799Z,1.00
2023-05-21T16:42:08.249Z,1.00
2023-05-21T16:44:38.492Z,1.00
2023-05-21T16:47:07.283Z,1.00
2023-05-21T16:49:35.698Z,1.00
2023-05-21T16:52:04.155Z,1.00
2023-05-21T16:54:32.573Z,1.00
2023-05-21T16:57:00.943Z,1.00
2023-05-21T16:59:29.779Z,1.00
2023-05-21T17:01:58.337Z,1.00
2023-05-21T17:04:26.925Z,1.00
2023-05-21T17:06:55.282Z,1.00
2023-05-21T17:09:23.733Z,1.00
2023-05-21T17:11:52.103Z,1.00
2023-05-21T17:14:33.281Z,1.00
2023-05-21T17:17:03.236Z,1.00
2023-05-21T17:19:31.972Z,1.00
2023-05-21T17:22:00.505Z,1.00
2023-05-21T17:24:28.895Z,1.00
2023-05-21T17:26:57.233Z,1.00
2023-05-21T17:29:25.557Z,1.00
2023-05-21T17:31:54.022Z,1.00
2023-05-21T17:34:25.304Z,1.00
2023-05-21T17:36:55.350Z,1.00
2023-05-21T17:39:23.711Z,1.00
2023-05-21T17:41:52.783Z,1.00
2023-05-21T17:44:21.416Z,1.00
2023-05-21T17:46:51.785Z,1.00
2023-05-21T17:49:20.523Z,1.00
2023-05-21T17:51:49.140Z,1.00
2023-05-21T17:54:17.573Z,1.00
2023-05-21T17:56:46.687Z,1.00
2023-05-21T17:59:16.801Z,1.00
2023-05-21T18:01:45.181Z,1.00
2023-05-21T18:04:13.998Z,1.00
2023-05-21T18:06:43.877Z,1.00
2023-05-21T18:09:14.991Z,1.00
2023-05-21T18:11:46.250Z,1.00
2023-05-21T18:14:14.575Z,1.00
2023-05-21T18:16:43.132Z,1.00
2023-05-21T18:19:11.788Z,1.00
2023-05-21T18:21:40.246Z,1.00
2023-05-21T18:24:08.983Z,1.00
2023-05-21T18:26:37.370Z,1.00
2023-05-21T18:29:05.792Z,1.00
2023-05-21T18:31:34.171Z,1.00
2023-05-21T18:34:02.571Z,1.00
2023-05-21T18:36:30.947Z,1.00
2023-05-21T18:38:59.320Z,1.00
2023-05-21T18:41:27.817Z,1.00
2023-05-21T18:43:56.225Z,1.00
2023-05-21T18:46:24.632Z,1.00
2023-05-21T18:48:53.102Z,1.00
2023-05-21T18:51:21.553Z,1.00
2023-05-21T18:53:49.928Z,1.00
2023-05-21T18:56:18.484Z,1.00
2023-05-21T18:58:47.046Z,1.00
2023-05-21T19:01:15.547Z,1.00
2023-05-21T19:03:44.067Z,1.00
2023-05-21T19:06:12.524Z,1.00
2023-05-21T19:08:42.026Z,1.00
2023-05-21T19:11:12.210Z,1.00
2023-05-21T19:13:40.755Z,1.00
2023-05-21T19:16:11.637Z,1.00
2023-05-21T19:18:43.478Z,1.00
2023-05-21T19:21:12.219Z,1.00
2023-05-21T19:23:52.040Z,1.00
2023-05-21T19:26:23.249Z,1.00
2023-05-21T19:28:54.107Z,1.00
2023-05-21T19:31:23.607Z,1.00
2023-05-21T19:33:52.465Z,1.00
2023-05-21T19:36:22.476Z,1.00
2023-05-21T19:38:51.884Z,1.00
2023-05-21T19:41:20.867Z,1.00
2023-05-21T19:43:49.203Z,1.00
2023-05-21T19:46:20.047Z,1.00
2023-05-21T19:48:49.999Z,1.00
2023-05-21T19:51:18.701Z,1.00
2023-05-21T19:53:47.092Z,1.00
2023-05-21T19:56:15.854Z,1.00
2023-05-21T19:58:47.884Z,1.00
2023-05-21T20:01:19.567Z,1.00
2023-05-21T20:03:48.502Z,1.00
2023-05-21T20:06:19.563Z,1.00
2023-05-21T20:08:48.549Z,1.00
2023-05-21T20:11:17.176Z,1.00
2023-05-21T20:13:50.802Z,1.00
2023-05-21T20:16:19.219Z,1.00
2023-05-21T20:18:50.862Z,1.00
2023-05-21T20:21:19.819Z,1.00
2023-05-21T20:23:48.479Z,1.00
2023-05-21T20:26:17.566Z,1.00
2023-05-21T20:28:46.923Z,1.00
2023-05-21T20:31:15.348Z,1.00
2023-05-21T20:33:43.846Z,1.00
2023-05-21T20:36:15.961Z,1.00
2023-05-21T20:38:46.150Z,1.00
2023-05-21T20:41:14.996Z,1.00
2023-05-21T20:43:46.324Z,1.00
2023-05-21T20:46:14.890Z,1.00
2023-05-21T20:48:44.268Z,1.00
2023-05-21T20:51:12.952Z,1.00
2023-05-21T20:53:41.538Z,1.00
2023-05-21T20:56:12.423Z,1.00
2023-05-21T20:58:40.774Z,1.00
2023-05-21T21:01:11.268Z,1.00
2023-05-21T21:03:41.851Z,1.00
2023-05-21T21:06:10.568Z,1.00
2023-05-21T21:08:41.016Z,1.00
2023-05-21T21:11:11.289Z,1.00
2023-05-21T21:13:40.155Z,1.00
2023-05-21T21:16:09.219Z,1.00
2023-05-21T21:18:37.693Z,1.00
2023-05-21T21:21:06.594Z,1.00
2023-05-21T21:23:35.034Z,1.00
2023-05-21T21:26:03.352Z,1.00
2023-05-21T21:28:31.869Z,1.00
2023-05-21T21:31:00.280Z,1.00
2023-05-21T21:33:29.158Z,1.00
2023-05-21T21:35:57.528Z,1.00
2023-05-21T21:38:25.908Z,1.00
2023-05-21T21:40:55.270Z,1.00
2023-05-21T21:43:23.618Z,1.00
2023-05-21T21:45:52.149Z,1.00
2023-05-21T21:48:20.556Z,1.00
2023-05-21T21:50:48.905Z,1.00
2023-05-21T21:53:17.460Z,1.00
2023-05-21T21:55:45.923Z,1.00
2023-05-21T21:58:14.272Z,1.00
2023-05-21T22:00:43.245Z,1.00
2023-05-21T22:03:14.536Z,1.00
2023-05-21T22:05:43.520Z,1.00
2023-05-21T22:08:12.327Z,1.00
2023-05-21T22:10:40.982Z,1.00
2023-05-21T22:13:09.816Z,1.00
2023-05-21T22:15:38.509Z,1.00
2023-05-21T22:18:07.180Z,1.00
2023-05-21T22:20:35.986Z,1.00
2023-05-21T22:23:04.445Z,1.00
2023-05-21T22:25:32.809Z,1.00
2023-05-21T22:28:01.304Z,1.00
2023-05-21T22:30:29.635Z,1.00
2023-05-21T22:32:58.111Z,1.00
2023-05-21T22:35:26.791Z,1.00
2023-05-21T22:37:55.266Z,1.00
2023-05-21T22:40:23.599Z,1.00
2023-05-21T22:42:52.242Z,1.00
2023-05-21T22:45:22.551Z,1.00
2023-05-21T22:47:52.709Z,1.00
2023-05-21T22:50:21.080Z,1.00
2023-05-21T22:52:49.590Z,1.00
2023-05-21T22:55:18.582Z,1.00
2023-05-21T22:57:47.065Z,1.00
2023-05-21T23:00:15.599Z,1.00
2023-05-21T23:02:44.082Z,1.00
2023-05-21T23:05:12.458Z,1.00
2023-05-21T23:07:42.034Z,1.00
2023-05-21T23:10:10.767Z,1.00
2023-05-21T23:12:39.562Z,1.00
2023-05-21T23:15:08.360Z,1.00
2023-05-21T23:17:37.059Z,1.00
2023-05-21T23:20:06.349Z,1.00
2023-05-21T23:22:34.835Z,1.00
2023-05-21T23:25:03.613Z,1.00
2023-05-21T23:27:31.993Z,1.00
2023-05-21T23:30:02.009Z,1.00
2023-05-21T23:32:30.486Z,1.00
2023-05-21T23:34:58.964Z,1.00
2023-05-21T23:37:27.324Z,1.00
2023-05-21T23:39:55.734Z,1.00
2023-05-21T23:42:24.291Z,1.00
2023-05-21T23:44:52.785Z,1.00
2023-05-21T23:47:21.170Z,1.00
2023-05-21T23:49:49.506Z,1.00
2023-05-21T23:52:19.047Z,1.00
2023-05-21T23:54:47.385Z,1.00
2023-05-21T23:57:15.809Z,1.00
2023-05-21T23:59:44.343Z,1.00
